Time;durP1;ratioP1;P1;durP2;ratioP2;P2;SDS_P1;SDS_P2;PMS_P1;PMS_P2;Temp;Humidity;BMP_temperature;BMP_pressure;BME280_temperature;BME280_humidity;BME280_pressure;Samples;Min_cycle;Max_cycle;Signal;HPM_P1;HPM_P2
2023/06/18 00:01:56;;;;;;;;;24.67;23.67;;;;;;;;5059153;28;45382;-72
2023/06/18 00:04:21;;;;;;;;;16.67;16.67;;;;;;;;5058992;28;45484;-72
2023/06/18 00:06:46;;;;;;;;;24.00;23.67;;;;;;;;5059220;28;45445;-72
2023/06/18 00:09:12;;;;;;;;;23.00;23.00;;;;;;;;5059552;28;46493;-72
2023/06/18 00:11:37;;;;;;;;;29.33;28.00;;;;;;;;5059732;28;45275;-72
2023/06/18 00:14:02;;;;;;;;;25.67;25.67;;;;;;;;5059678;28;45346;-71
2023/06/18 00:16:27;;;;;;;;;25.00;25.00;;;;;;;;5059260;28;45256;-72
2023/06/18 00:18:52;;;;;;;;;26.00;26.00;;;;;;;;5059458;28;46689;-73
2023/06/18 00:21:18;;;;;;;;;27.33;26.67;;;;;;;;5059230;28;45162;-71
2023/06/18 00:23:43;;;;;;;;;23.67;22.67;;;;;;;;5059676;28;45284;-72
2023/06/18 00:26:08;;;;;;;;;26.67;25.33;;;;;;;;5059332;28;45310;-72
2023/06/18 00:28:33;;;;;;;;;21.00;21.00;;;;;;;;5059279;28;46207;-71
2023/06/18 00:30:59;;;;;;;;;22.67;21.33;;;;;;;;5059078;28;45248;-72
2023/06/18 00:33:24;;;;;;;;;25.33;25.00;;;;;;;;5059435;28;45489;-72
2023/06/18 00:35:56;;;;;;;;;25.00;25.00;;;;;;;;5059147;28;45509;-72
2023/06/18 00:38:23;;;;;;;;;23.33;22.67;;;;;;;;5059005;28;45346;-72
2023/06/18 00:40:48;;;;;;;;;24.00;24.00;;;;;;;;5058931;28;45398;-72
2023/06/18 00:43:13;;;;;;;;;24.33;23.67;;;;;;;;5059165;28;45314;-72
2023/06/18 00:45:39;;;;;;;;;24.33;23.67;;;;;;;;5058912;28;45275;-72
2023/06/18 00:48:05;;;;;;;;;25.00;24.67;;;;;;;;5059110;28;45260;-72
2023/06/18 00:50:32;;;;;;;;;22.33;21.33;;;;;;;;5058878;28;45236;-72
2023/06/18 00:53:00;;;;;;;;;20.33;20.33;;;;;;;;5059137;28;45346;-72
2023/06/18 00:55:29;;;;;;;;;23.50;23.00;;;;;;;;5058866;28;45487;-72
2023/06/18 00:58:02;;;;;;;;;27.67;26.00;;;;;;;;5058908;28;46056;-72
2023/06/18 01:00:28;;;;;;;;;23.33;23.33;;;;;;;;5058727;28;45370;-71
2023/06/18 01:02:55;;;;;;;;;22.00;20.67;;;;;;;;5058930;28;45173;-72
2023/06/18 01:05:21;;;;;;;;;25.67;25.67;;;;;;;;5058773;28;45239;-72
2023/06/18 01:07:49;;;;;;;;;23.00;22.33;;;;;;;;5057290;28;45889;-72
2023/06/18 01:10:15;;;;;;;;;24.67;24.67;;;;;;;;5058795;28;45297;-71
2023/06/18 01:12:42;;;;;;;;;24.00;24.00;;;;;;;;5058867;28;45293;-72
2023/06/18 01:15:09;;;;;;;;;23.67;23.33;;;;;;;;5058502;28;45347;-72
2023/06/18 01:17:37;;;;;;;;;22.00;22.00;;;;;;;;5061487;28;46187;-72
2023/06/18 01:20:10;;;;;;;;;22.00;22.00;;;;;;;;5062110;28;45306;-72
2023/06/18 01:22:51;;;;;;;;;26.00;26.00;;;;;;;;5062114;28;45164;-72
2023/06/18 01:25:18;;;;;;;;;23.00;23.00;;;;;;;;5062043;28;45299;-72
2023/06/18 01:27:43;;;;;;;;;24.67;24.67;;;;;;;;5061932;28;45375;-72
2023/06/18 01:30:10;;;;;;;;;29.00;27.00;;;;;;;;5061570;28;45415;-72
2023/06/18 01:32:36;;;;;;;;;26.33;26.00;;;;;;;;5062222;28;45264;-72
2023/06/18 01:35:02;;;;;;;;;29.00;27.33;;;;;;;;5061831;28;45247;-72
2023/06/18 01:37:28;;;;;;;;;26.00;25.67;;;;;;;;5061504;28;46078;-72
2023/06/18 01:40:04;;;;;;;;;28.00;26.67;;;;;;;;5061753;28;45353;-71
2023/06/18 01:42:32;;;;;;;;;25.33;25.00;;;;;;;;5061554;28;45488;-71
2023/06/18 01:45:02;;;;;;;;;26.00;26.00;;;;;;;;5061548;28;45269;-72
2023/06/18 01:47:28;;;;;;;;;28.33;27.33;;;;;;;;5061633;28;45321;-71
2023/06/18 01:49:54;;;;;;;;;28.33;27.33;;;;;;;;5061626;28;45298;-71
2023/06/18 01:52:23;;;;;;;;;32.00;29.67;;;;;;;;5061783;28;45300;-71
2023/06/18 01:54:49;;;;;;;;;28.67;28.00;;;;;;;;5061572;28;45544;-71
2023/06/18 01:57:14;;;;;;;;;26.00;26.00;;;;;;;;5061324;28;45587;-71
2023/06/18 01:59:41;;;;;;;;;25.67;25.67;;;;;;;;5061633;28;45204;-72
2023/06/18 02:02:06;;;;;;;;;29.00;27.33;;;;;;;;5061401;28;45351;-72
2023/06/18 02:04:31;;;;;;;;;26.33;26.33;;;;;;;;5061269;28;45489;-72
2023/06/18 02:06:57;;;;;;;;;26.33;24.67;;;;;;;;5061014;28;46062;-72
2023/06/18 02:09:22;;;;;;;;;27.67;27.00;;;;;;;;5060297;28;45398;-72
2023/06/18 02:11:47;;;;;;;;;25.33;25.33;;;;;;;;5061547;28;45220;-72
2023/06/18 02:14:12;;;;;;;;;27.67;26.33;;;;;;;;5061267;28;45309;-71
2023/06/18 02:16:37;;;;;;;;;22.33;21.33;;;;;;;;5061127;28;46222;-72
2023/06/18 02:19:03;;;;;;;;;26.67;26.67;;;;;;;;5061315;28;45381;-71
2023/06/18 02:21:28;;;;;;;;;28.00;27.67;;;;;;;;5061162;28;45362;-72
2023/06/18 02:23:54;;;;;;;;;27.00;26.00;;;;;;;;5061255;28;45365;-71
2023/06/18 02:26:19;;;;;;;;;27.67;26.67;;;;;;;;5061228;28;46272;-72
2023/06/18 02:28:44;;;;;;;;;23.33;23.33;;;;;;;;5060167;28;45306;-71
2023/06/18 02:31:09;;;;;;;;;28.00;26.00;;;;;;;;5060970;28;45295;-71
2023/06/18 02:33:35;;;;;;;;;30.00;28.00;;;;;;;;5060989;28;45547;-72
2023/06/18 02:36:00;;;;;;;;;30.00;27.67;;;;;;;;5060949;28;45433;-72
2023/06/18 02:38:25;;;;;;;;;28.33;27.00;;;;;;;;5060884;28;45457;-72
2023/06/18 02:40:51;;;;;;;;;29.67;28.00;;;;;;;;5060903;28;45365;-71
2023/06/18 02:43:16;;;;;;;;;30.33;28.00;;;;;;;;5060557;28;45263;-72
2023/06/18 02:45:42;;;;;;;;;27.33;27.00;;;;;;;;5060647;28;45916;-71
2023/06/18 02:48:07;;;;;;;;;29.00;28.00;;;;;;;;5060835;28;45188;-71
2023/06/18 02:50:32;;;;;;;;;28.33;27.67;;;;;;;;5060758;28;45314;-71
2023/06/18 02:52:57;;;;;;;;;31.33;27.67;;;;;;;;5060628;28;45323;-72
2023/06/18 02:55:23;;;;;;;;;31.33;29.67;;;;;;;;5060696;28;46021;-72
2023/06/18 02:57:49;;;;;;;;;36.33;30.67;;;;;;;;5060690;28;45220;-72
2023/06/18 03:00:14;;;;;;;;;32.67;30.00;;;;;;;;5060445;28;45288;-71
2023/06/18 03:02:41;;;;;;;;;32.67;30.00;;;;;;;;5060561;28;45210;-72
2023/06/18 03:05:06;;;;;;;;;34.33;31.33;;;;;;;;5060453;28;45395;-71
2023/06/18 03:07:31;;;;;;;;;34.67;31.33;;;;;;;;5060411;28;45337;-72
2023/06/18 03:09:57;;;;;;;;;30.67;29.00;;;;;;;;5060580;28;45283;-71
2023/06/18 03:12:22;;;;;;;;;43.00;34.33;;;;;;;;5060402;28;45365;-71
2023/06/18 03:14:47;;;;;;;;;35.67;32.33;;;;;;;;5060420;28;45411;-72
2023/06/18 03:17:13;;;;;;;;;30.00;28.67;;;;;;;;5060152;28;45289;-72
2023/06/18 03:19:38;;;;;;;;;34.33;30.33;;;;;;;;5060516;28;45647;-72
2023/06/18 03:22:04;;;;;;;;;30.33;29.00;;;;;;;;5060097;28;45446;-71
2023/06/18 03:24:29;;;;;;;;;26.33;26.00;;;;;;;;5060226;28;45295;-71
2023/06/18 03:26:57;;;;;;;;;39.00;33.67;;;;;;;;5060148;28;45343;-72
2023/06/18 03:29:22;;;;;;;;;36.67;32.67;;;;;;;;5060271;28;45268;-71
2023/06/18 03:31:47;;;;;;;;;31.00;30.00;;;;;;;;5059906;28;45532;-71
2023/06/18 03:34:13;;;;;;;;;34.67;32.00;;;;;;;;5060042;28;45939;-71
2023/06/18 03:36:41;;;;;;;;;34.00;30.67;;;;;;;;5059849;28;45176;-72
2023/06/18 03:39:07;;;;;;;;;35.00;31.67;;;;;;;;5059978;28;45401;-72
2023/06/18 03:41:32;;;;;;;;;33.00;30.33;;;;;;;;5059646;28;45318;-72
2023/06/18 03:43:57;;;;;;;;;31.67;29.00;;;;;;;;5059681;28;46639;-72
2023/06/18 03:46:22;;;;;;;;;35.67;31.00;;;;;;;;5059707;28;45303;-71
2023/06/18 03:48:48;;;;;;;;;34.33;31.33;;;;;;;;5060162;28;45259;-72
2023/06/18 03:51:13;;;;;;;;;38.33;32.00;;;;;;;;5059780;28;45346;-72
2023/06/18 03:53:38;;;;;;;;;40.00;33.33;;;;;;;;5059690;28;45385;-72
2023/06/18 03:56:04;;;;;;;;;38.67;33.00;;;;;;;;5059890;28;45455;-71
2023/06/18 03:58:29;;;;;;;;;25.00;25.00;;;;;;;;5059965;28;45423;-71
2023/06/18 04:00:55;;;;;;;;;40.33;33.00;;;;;;;;5059154;28;45444;-72
2023/06/18 04:03:21;;;;;;;;;39.67;33.67;;;;;;;;5055726;28;45333;-72
2023/06/18 04:05:46;;;;;;;;;40.67;35.00;;;;;;;;5047116;28;45411;-72
2023/06/18 04:08:11;;;;;;;;;35.33;32.00;;;;;;;;5049821;28;45243;-71
2023/06/18 04:10:36;;;;;;;;;35.67;30.67;;;;;;;;5046369;28;45314;-71
2023/06/18 04:13:02;;;;;;;;;35.67;31.33;;;;;;;;5039180;28;45300;-72
2023/06/18 04:15:27;;;;;;;;;36.00;31.33;;;;;;;;5039159;28;45411;-72
2023/06/18 04:17:53;;;;;;;;;38.67;33.00;;;;;;;;5039597;28;45266;-72
2023/06/18 04:20:18;;;;;;;;;31.33;29.33;;;;;;;;5039217;28;45236;-71
2023/06/18 04:22:43;;;;;;;;;37.33;32.67;;;;;;;;5039154;28;45241;-72
2023/06/18 04:25:09;;;;;;;;;37.00;33.00;;;;;;;;5039343;28;45222;-72
2023/06/18 04:27:34;;;;;;;;;33.00;30.00;;;;;;;;5039422;28;46244;-71
2023/06/18 04:29:59;;;;;;;;;33.67;31.00;;;;;;;;5053005;28;45425;-71
2023/06/18 04:32:24;;;;;;;;;35.00;32.00;;;;;;;;5059275;28;46306;-72
2023/06/18 04:34:49;;;;;;;;;40.33;33.67;;;;;;;;5059375;28;45200;-72
2023/06/18 04:37:15;;;;;;;;;33.00;30.00;;;;;;;;5059147;28;45199;-71
2023/06/18 04:39:40;;;;;;;;;35.67;32.00;;;;;;;;5059328;28;45255;-72
2023/06/18 04:42:05;;;;;;;;;39.33;34.33;;;;;;;;5058954;28;45166;-71
2023/06/18 04:44:31;;;;;;;;;36.00;31.33;;;;;;;;5059145;28;45231;-71
2023/06/18 04:46:56;;;;;;;;;34.33;30.33;;;;;;;;5059237;28;45479;-70
2023/06/18 04:49:21;;;;;;;;;29.33;28.00;;;;;;;;5059142;28;45156;-70
2023/06/18 04:51:46;;;;;;;;;34.33;31.00;;;;;;;;5060696;28;45375;-71
2023/06/18 04:54:11;;;;;;;;;31.67;29.67;;;;;;;;5062616;28;45432;-71
2023/06/18 04:56:37;;;;;;;;;34.00;30.33;;;;;;;;5062763;28;45441;-70
2023/06/18 04:59:02;;;;;;;;;31.00;29.00;;;;;;;;5062112;28;45544;-71
2023/06/18 05:01:28;;;;;;;;;33.00;30.33;;;;;;;;5042038;28;45987;-71
2023/06/18 05:03:53;;;;;;;;;32.67;30.00;;;;;;;;5042325;28;45542;-71
2023/06/18 05:06:18;;;;;;;;;33.67;29.67;;;;;;;;5042395;28;45326;-71
2023/06/18 05:08:43;;;;;;;;;31.00;29.00;;;;;;;;5042245;28;45296;-70
2023/06/18 05:11:08;;;;;;;;;30.33;29.00;;;;;;;;5042122;28;46086;-70
2023/06/18 05:13:34;;;;;;;;;34.33;31.67;;;;;;;;5042166;28;45351;-70
2023/06/18 05:15:59;;;;;;;;;30.00;28.33;;;;;;;;5042068;28;45387;-71
2023/06/18 05:18:25;;;;;;;;;32.67;30.00;;;;;;;;5042126;28;45467;-70
2023/06/18 05:20:50;;;;;;;;;34.67;31.33;;;;;;;;5041775;28;45995;-70
2023/06/18 05:23:15;;;;;;;;;31.00;28.67;;;;;;;;5041987;28;45346;-70
2023/06/18 05:25:43;;;;;;;;;33.33;30.33;;;;;;;;5042222;28;45567;-70
2023/06/18 05:28:08;;;;;;;;;28.33;28.00;;;;;;;;5042022;28;45261;-70
2023/06/18 05:30:34;;;;;;;;;30.00;28.00;;;;;;;;5060173;28;46177;-70
2023/06/18 05:32:59;;;;;;;;;32.00;29.00;;;;;;;;5062111;28;45247;-70
2023/06/18 05:35:24;;;;;;;;;31.67;29.33;;;;;;;;5059820;28;45208;-70
2023/06/18 05:37:49;;;;;;;;;28.00;27.00;;;;;;;;5061680;28;45336;-69
2023/06/18 05:40:15;;;;;;;;;31.33;28.33;;;;;;;;5061817;28;45150;-69
2023/06/18 05:42:40;;;;;;;;;28.33;28.00;;;;;;;;5061539;28;45259;-69
2023/06/18 05:45:06;;;;;;;;;30.00;27.67;;;;;;;;5061752;28;45303;-69
2023/06/18 05:47:31;;;;;;;;;32.33;29.67;;;;;;;;5061726;28;45348;-70
2023/06/18 05:49:56;;;;;;;;;30.67;28.00;;;;;;;;5061520;28;45576;-70
2023/06/18 05:52:22;;;;;;;;;31.33;29.33;;;;;;;;5061730;28;45350;-71
2023/06/18 05:54:47;;;;;;;;;29.67;26.00;;;;;;;;5061840;28;45349;-72
2023/06/18 05:57:13;;;;;;;;;31.33;30.00;;;;;;;;5060780;28;45347;-72
2023/06/18 05:59:38;;;;;;;;;25.00;22.67;;;;;;;;5061251;28;46098;-72
2023/06/18 06:02:05;;;;;;;;;33.00;30.00;;;;;;;;5059714;28;45335;-72
2023/06/18 06:04:30;;;;;;;;;32.67;30.33;;;;;;;;5060332;28;45437;-71
2023/06/18 06:06:55;;;;;;;;;28.33;27.33;;;;;;;;5061010;28;45395;-71
2023/06/18 06:09:20;;;;;;;;;32.00;30.00;;;;;;;;5061324;28;46304;-71
2023/06/18 06:11:46;;;;;;;;;28.00;28.00;;;;;;;;5060054;28;45408;-71
2023/06/18 06:14:15;;;;;;;;;33.67;30.00;;;;;;;;5060797;28;45692;-73
2023/06/18 06:16:40;;;;;;;;;29.33;28.33;;;;;;;;5060052;28;45607;-72
2023/06/18 06:19:06;;;;;;;;;24.67;24.67;;;;;;;;5060249;28;45951;-71
2023/06/18 06:21:33;;;;;;;;;31.00;29.67;;;;;;;;5060502;28;45584;-71
2023/06/18 06:23:58;;;;;;;;;31.00;29.00;;;;;;;;5054408;28;45537;-70
2023/06/18 06:26:23;;;;;;;;;30.00;29.33;;;;;;;;5048814;28;45427;-70
2023/06/18 06:28:48;;;;;;;;;29.33;28.33;;;;;;;;5052917;28;46139;-70
2023/06/18 06:31:14;;;;;;;;;29.33;27.67;;;;;;;;5048997;28;45482;-70
2023/06/18 06:33:39;;;;;;;;;33.00;28.33;;;;;;;;5050714;28;45477;-72
2023/06/18 06:36:04;;;;;;;;;17.67;15.00;;;;;;;;5048916;28;45521;-71
2023/06/18 06:38:30;;;;;;;;;29.33;28.00;;;;;;;;5050623;28;45422;-71
2023/06/18 06:40:55;;;;;;;;;31.67;29.33;;;;;;;;5050220;28;45510;-71
2023/06/18 06:43:20;;;;;;;;;30.67;29.33;;;;;;;;5049385;28;45476;-71
2023/06/18 06:45:45;;;;;;;;;30.33;28.67;;;;;;;;5050875;28;45531;-71
2023/06/18 06:48:11;;;;;;;;;29.67;28.00;;;;;;;;5049599;28;45507;-70
2023/06/18 06:50:36;;;;;;;;;27.00;27.00;;;;;;;;5049513;28;45458;-71
2023/06/18 06:53:01;;;;;;;;;31.67;28.67;;;;;;;;5051099;28;45536;-71
2023/06/18 06:55:26;;;;;;;;;28.33;26.67;;;;;;;;5048824;28;45742;-71
2023/06/18 06:57:52;;;;;;;;;27.00;27.00;;;;;;;;5042228;28;45308;-71
2023/06/18 07:00:17;;;;;;;;;27.67;27.00;;;;;;;;5040291;28;45474;-71
2023/06/18 07:02:42;;;;;;;;;30.67;29.00;;;;;;;;5040742;28;45229;-71
2023/06/18 07:05:08;;;;;;;;;26.33;26.33;;;;;;;;5040309;28;45558;-70
2023/06/18 07:07:35;;;;;;;;;31.00;28.00;;;;;;;;5036851;28;45979;-70
2023/06/18 07:10:01;;;;;;;;;30.00;28.67;;;;;;;;5046617;28;45617;-71
2023/06/18 07:12:26;;;;;;;;;27.00;26.00;;;;;;;;5050567;28;45463;-71
2023/06/18 07:14:51;;;;;;;;;24.67;24.67;;;;;;;;5047081;28;45566;-71
2023/06/18 07:17:16;;;;;;;;;31.33;28.67;;;;;;;;5058574;28;45925;-71
2023/06/18 07:19:41;;;;;;;;;28.00;27.67;;;;;;;;5058124;28;45366;-71
2023/06/18 07:22:07;;;;;;;;;31.33;29.33;;;;;;;;5059111;28;45249;-71
2023/06/18 07:24:32;;;;;;;;;29.33;28.00;;;;;;;;5058419;28;45497;-70
2023/06/18 07:26:57;;;;;;;;;29.67;27.00;;;;;;;;5059164;28;45345;-70
2023/06/18 07:29:22;;;;;;;;;31.00;28.33;;;;;;;;5058267;28;45393;-71
2023/06/18 07:31:47;;;;;;;;;22.00;22.00;;;;;;;;5058863;28;45376;-71
2023/06/18 07:34:12;;;;;;;;;28.33;27.67;;;;;;;;5058268;28;45358;-70
2023/06/18 07:36:38;;;;;;;;;32.00;29.67;;;;;;;;5058939;28;45421;-70
2023/06/18 07:39:03;;;;;;;;;31.00;29.00;;;;;;;;5058715;28;45459;-70
2023/06/18 07:41:28;;;;;;;;;29.33;27.33;;;;;;;;5058985;28;45261;-70
2023/06/18 07:43:53;;;;;;;;;32.00;30.33;;;;;;;;5057602;28;45252;-70
2023/06/18 07:46:19;;;;;;;;;27.00;27.00;;;;;;;;5058611;28;45420;-70
2023/06/18 07:48:45;;;;;;;;;33.67;28.67;;;;;;;;5058918;28;45288;-71
2023/06/18 07:51:10;;;;;;;;;29.67;28.00;;;;;;;;5058954;28;45463;-70
2023/06/18 07:53:35;;;;;;;;;27.67;27.00;;;;;;;;5058175;28;45510;-70
2023/06/18 07:56:00;;;;;;;;;28.00;26.67;;;;;;;;5058186;28;45321;-70
2023/06/18 07:58:25;;;;;;;;;24.00;22.00;;;;;;;;5057066;28;45661;-70
2023/06/18 08:00:51;;;;;;;;;30.00;28.33;;;;;;;;5058645;28;45497;-70
2023/06/18 08:03:16;;;;;;;;;33.67;30.00;;;;;;;;5058343;28;45579;-71
2023/06/18 08:05:41;;;;;;;;;29.33;28.33;;;;;;;;5058053;28;46125;-71
2023/06/18 08:08:06;;;;;;;;;28.67;27.67;;;;;;;;5058479;28;45342;-70
2023/06/18 08:10:31;;;;;;;;;27.67;27.00;;;;;;;;5058807;28;45351;-71
2023/06/18 08:12:57;;;;;;;;;27.33;26.33;;;;;;;;5057479;28;45355;-71
2023/06/18 08:15:22;;;;;;;;;28.00;27.33;;;;;;;;5052137;28;45609;-71
2023/06/18 08:17:47;;;;;;;;;25.67;25.67;;;;;;;;5050667;28;45401;-71
2023/06/18 08:20:12;;;;;;;;;26.33;24.67;;;;;;;;5043370;28;45303;-71
2023/06/18 08:22:38;;;;;;;;;27.00;27.00;;;;;;;;5038068;28;45165;-71
2023/06/18 08:25:03;;;;;;;;;25.67;25.67;;;;;;;;5038049;28;46094;-72
2023/06/18 08:27:28;;;;;;;;;23.67;23.67;;;;;;;;5039659;28;45290;-71
2023/06/18 08:29:53;;;;;;;;;24.33;24.33;;;;;;;;5054942;28;45635;-71
2023/06/18 08:32:19;;;;;;;;;26.00;24.33;;;;;;;;5058655;28;45460;-71
2023/06/18 08:34:45;;;;;;;;;26.67;26.67;;;;;;;;5049784;28;45338;-71
2023/06/18 08:37:11;;;;;;;;;24.67;24.00;;;;;;;;5050872;28;45448;-71
2023/06/18 08:39:36;;;;;;;;;25.67;25.00;;;;;;;;5052014;28;45431;-71
2023/06/18 08:42:02;;;;;;;;;23.67;21.00;;;;;;;;5049101;28;45722;-72
2023/06/18 08:44:27;;;;;;;;;23.67;23.67;;;;;;;;5051498;28;46224;-72
2023/06/18 08:46:57;;;;;;;;;27.00;26.33;;;;;;;;5050439;28;45649;-72
2023/06/18 08:49:23;;;;;;;;;26.33;26.33;;;;;;;;5049924;28;45273;-70
2023/06/18 08:51:51;;;;;;;;;25.67;25.00;;;;;;;;5051644;28;45296;-71
2023/06/18 08:54:21;;;;;;;;;23.33;22.00;;;;;;;;5049972;28;47761;-70
2023/06/18 08:56:55;;;;;;;;;20.00;20.00;;;;;;;;5048979;28;45486;-71
2023/06/18 08:59:20;;;;;;;;;25.67;25.67;;;;;;;;5042064;28;45326;-71
2023/06/18 09:01:46;;;;;;;;;20.67;20.33;;;;;;;;5040879;28;45308;-72
2023/06/18 09:04:12;;;;;;;;;22.67;21.33;;;;;;;;5040923;28;45320;-71
2023/06/18 09:06:38;;;;;;;;;24.00;24.00;;;;;;;;5043214;28;45315;-71
2023/06/18 09:09:04;;;;;;;;;24.33;24.33;;;;;;;;5060489;28;45375;-71
2023/06/18 09:11:31;;;;;;;;;28.00;26.67;;;;;;;;5061715;28;45226;-70
2023/06/18 09:13:56;;;;;;;;;23.67;22.67;;;;;;;;5062221;28;45939;-71
2023/06/18 09:16:22;;;;;;;;;24.67;24.67;;;;;;;;5044064;28;45612;-70
2023/06/18 09:18:47;;;;;;;;;27.67;26.00;;;;;;;;5059979;28;45770;-72
2023/06/18 09:21:51;;;;;;;;;21.67;21.67;;;;;;;;5050284;28;45578;-70
2023/06/18 09:24:18;;;;;;;;;23.50;23.50;;;;;;;;4998998;28;45440;-70
2023/06/18 09:26:43;;;;;;;;;23.00;23.00;;;;;;;;4998319;28;45500;-70
2023/06/18 09:29:09;;;;;;;;;25.00;25.00;;;;;;;;5025111;28;45520;-71
2023/06/18 09:31:36;;;;;;;;;24.00;22.33;;;;;;;;5047490;28;45518;-70
2023/06/18 09:34:12;;;;;;;;;21.67;21.33;;;;;;;;5040646;28;45712;-70
2023/06/18 09:36:38;;;;;;;;;25.33;25.33;;;;;;;;5041433;28;45157;-71
2023/06/18 09:39:13;;;;;;;;;24.33;24.33;;;;;;;;5041252;28;45494;-72
2023/06/18 09:41:39;;;;;;;;;26.33;25.67;;;;;;;;5041321;28;45253;-73
2023/06/18 09:44:06;;;;;;;;;23.67;23.67;;;;;;;;5040258;28;48584;-73
2023/06/18 09:46:32;;;;;;;;;24.33;23.67;;;;;;;;5041633;28;45326;-73
2023/06/18 09:48:57;;;;;;;;;25.33;25.33;;;;;;;;5043562;28;45481;-72
2023/06/18 09:51:24;;;;;;;;;24.67;24.67;;;;;;;;5061666;28;45602;-73
2023/06/18 09:53:56;;;;;;;;;24.33;23.00;;;;;;;;5061778;28;45300;-73
2023/06/18 09:56:22;;;;;;;;;24.33;24.33;;;;;;;;5061929;28;45450;-73
2023/06/18 09:58:48;;;;;;;;;26.67;26.33;;;;;;;;5062504;28;45387;-73
2023/06/18 10:01:14;;;;;;;;;22.33;21.67;;;;;;;;5060506;28;47420;-73
2023/06/18 10:03:40;;;;;;;;;28.00;27.33;;;;;;;;5062663;28;46230;-75
2023/06/18 10:06:19;;;;;;;;;22.00;22.00;;;;;;;;5061412;28;45379;-74
2023/06/18 10:08:45;;;;;;;;;26.33;25.00;;;;;;;;5061025;28;45317;-73
2023/06/18 10:11:13;;;;;;;;;23.67;23.67;;;;;;;;5061340;28;45275;-73
2023/06/18 10:13:45;;;;;;;;;21.00;21.00;;;;;;;;5060238;28;47287;-75
2023/06/18 10:16:12;;;;;;;;;23.67;23.67;;;;;;;;5060135;28;45502;-74
2023/06/18 10:18:38;;;;;;;;;20.67;20.67;;;;;;;;5061151;28;45355;-76
2023/06/18 10:21:04;;;;;;;;;23.67;22.33;;;;;;;;5061558;28;45986;-74
2023/06/18 10:23:30;;;;;;;;;22.00;22.00;;;;;;;;5061144;28;47445;-74
2023/06/18 10:25:57;;;;;;;;;24.00;24.00;;;;;;;;5048932;28;45808;-73
2023/06/18 10:28:22;;;;;;;;;25.00;25.00;;;;;;;;5046573;28;45316;-75
2023/06/18 10:30:48;;;;;;;;;21.00;18.67;;;;;;;;5050378;28;46197;-76
2023/06/18 10:33:13;;;;;;;;;24.67;24.67;;;;;;;;5058005;28;47539;-74
2023/06/18 10:35:39;;;;;;;;;25.00;25.00;;;;;;;;5057243;28;45293;-75
2023/06/18 10:38:05;;;;;;;;;24.67;24.67;;;;;;;;5055779;28;45498;-74
2023/06/18 10:40:36;;;;;;;;;26.67;26.00;;;;;;;;5058105;28;46098;-75
2023/06/18 10:43:05;;;;;;;;;38.00;33.67;;;;;;;;5061159;28;46387;-74
2023/06/18 10:45:30;;;;;;;;;28.67;27.67;;;;;;;;5059415;28;45266;-73
2023/06/18 10:48:22;;;;;;;;;20.33;20.33;;;;;;;;5050549;28;47844;-73
2023/06/18 10:51:07;;;;;;;;;26.00;26.00;;;;;;;;5049162;28;46148;-72
2023/06/18 10:53:32;;;;;;;;;29.00;27.67;;;;;;;;5048703;28;45486;-72
2023/06/18 10:55:57;;;;;;;;;25.00;24.00;;;;;;;;5049339;28;45441;-72
2023/06/18 10:58:37;;;;;;;;;25.33;25.33;;;;;;;;5048082;28;45339;-72
2023/06/18 11:01:02;;;;;;;;;25.67;25.00;;;;;;;;5050550;28;45930;-72
2023/06/18 11:03:34;;;;;;;;;22.67;22.67;;;;;;;;5058102;28;46136;-74
2023/06/18 11:06:00;;;;;;;;;29.00;27.00;;;;;;;;5054685;28;45319;-73
2023/06/18 11:08:28;;;;;;;;;25.00;24.33;;;;;;;;5038311;28;45292;-74
2023/06/18 11:11:07;;;;;;;;;21.33;21.33;;;;;;;;5039173;28;45741;-72
2023/06/18 11:13:36;;;;;;;;;23.67;23.33;;;;;;;;5037315;28;47405;-73
2023/06/18 11:16:09;;;;;;;;;22.67;22.67;;;;;;;;5037968;28;45422;-74
2023/06/18 11:18:34;;;;;;;;;24.67;24.67;;;;;;;;5038747;28;45403;-74
2023/06/18 11:21:02;;;;;;;;;24.33;24.33;;;;;;;;5038829;28;46229;-74
2023/06/18 11:23:28;;;;;;;;;25.33;25.33;;;;;;;;5038653;28;45414;-74
2023/06/18 11:25:53;;;;;;;;;21.33;21.33;;;;;;;;5053598;28;45511;-74
2023/06/18 11:28:20;;;;;;;;;25.00;25.00;;;;;;;;5059700;28;45335;-73
2023/06/18 11:30:46;;;;;;;;;23.67;23.00;;;;;;;;5038942;28;45373;-72
2023/06/18 11:33:11;;;;;;;;;22.67;21.67;;;;;;;;5041671;28;46122;-72
2023/06/18 11:35:36;;;;;;;;;26.67;26.67;;;;;;;;5058353;28;45258;-72
2023/06/18 11:38:02;;;;;;;;;21.33;21.00;;;;;;;;5056228;28;45396;-72
2023/06/18 11:40:27;;;;;;;;;38.67;33.67;;;;;;;;5060023;28;45493;-72
2023/06/18 11:42:53;;;;;;;;;35.00;32.00;;;;;;;;5058409;28;47166;-73
2023/06/18 11:45:18;;;;;;;;;25.33;25.33;;;;;;;;5049265;28;45253;-72
2023/06/18 11:47:48;;;;;;;;;25.67;24.33;;;;;;;;5036112;28;45224;-73
2023/06/18 11:50:14;;;;;;;;;25.33;25.00;;;;;;;;5054834;28;45783;-72
2023/06/18 11:52:39;;;;;;;;;20.00;20.00;;;;;;;;5050687;28;48010;-73
2023/06/18 11:55:05;;;;;;;;;22.33;22.00;;;;;;;;5047793;28;46082;-73
2023/06/18 11:57:31;;;;;;;;;21.67;21.33;;;;;;;;5046303;28;45569;-73
2023/06/18 11:59:56;;;;;;;;;24.67;23.67;;;;;;;;5058924;28;45496;-73
2023/06/18 12:02:23;;;;;;;;;13.33;13.00;;;;;;;;5057929;28;45437;-73
2023/06/18 12:04:49;;;;;;;;;20.33;20.33;;;;;;;;5058952;28;45209;-73
2023/06/18 12:07:16;;;;;;;;;21.00;21.00;;;;;;;;5058269;28;45279;-73
2023/06/18 12:09:41;;;;;;;;;20.33;19.67;;;;;;;;5059637;28;45366;-72
2023/06/18 12:12:07;;;;;;;;;21.00;19.33;;;;;;;;5059625;28;45378;-73
2023/06/18 12:14:35;;;;;;;;;19.00;18.67;;;;;;;;5059590;28;45337;-74
2023/06/18 12:17:05;;;;;;;;;26.00;24.67;;;;;;;;5058399;28;45354;-72
2023/06/18 12:19:31;;;;;;;;;19.00;19.00;;;;;;;;5057664;28;45463;-74
2023/06/18 12:21:56;;;;;;;;;22.67;22.00;;;;;;;;5059224;28;45323;-73
2023/06/18 12:24:21;;;;;;;;;23.33;21.00;;;;;;;;5058057;28;45242;-73
2023/06/18 12:26:47;;;;;;;;;23.67;23.00;;;;;;;;5059539;28;45386;-73
2023/06/18 12:29:12;;;;;;;;;22.67;22.33;;;;;;;;5057794;28;45372;-73
2023/06/18 12:31:37;;;;;;;;;22.00;22.00;;;;;;;;5057784;28;46158;-72
2023/06/18 12:34:02;;;;;;;;;20.67;20.67;;;;;;;;5057958;28;45303;-74
2023/06/18 12:36:29;;;;;;;;;24.00;23.00;;;;;;;;5059468;28;45489;-73
2023/06/18 12:38:54;;;;;;;;;22.00;21.00;;;;;;;;5057736;28;47389;-73
2023/06/18 12:41:23;;;;;;;;;26.00;25.67;;;;;;;;5057705;28;47919;-72
2023/06/18 12:43:48;;;;;;;;;22.67;22.33;;;;;;;;5057941;28;45225;-72
2023/06/18 12:46:25;;;;;;;;;19.67;19.67;;;;;;;;5059190;28;45203;-73
2023/06/18 12:48:51;;;;;;;;;22.00;21.67;;;;;;;;5059205;28;45477;-72
2023/06/18 12:51:17;;;;;;;;;21.00;21.00;;;;;;;;5057587;28;48005;-73
2023/06/18 12:53:42;;;;;;;;;23.67;23.67;;;;;;;;5057859;28;45639;-72
2023/06/18 12:56:22;;;;;;;;;20.67;20.33;;;;;;;;5057942;28;45327;-73
2023/06/18 12:58:47;;;;;;;;;24.33;24.00;;;;;;;;5057867;28;46212;-72
2023/06/18 13:01:13;;;;;;;;;20.33;20.33;;;;;;;;5058781;28;45349;-71
2023/06/18 13:03:39;;;;;;;;;22.67;22.33;;;;;;;;5058806;28;45259;-72
2023/06/18 13:06:05;;;;;;;;;23.33;23.00;;;;;;;;5057740;28;45347;-72
2023/06/18 13:08:30;;;;;;;;;23.67;23.33;;;;;;;;5058956;28;45195;-73
2023/06/18 13:10:58;;;;;;;;;23.67;22.33;;;;;;;;5058850;28;45557;-72
2023/06/18 13:13:24;;;;;;;;;20.67;20.00;;;;;;;;5060018;28;45334;-72
2023/06/18 13:15:51;;;;;;;;;22.00;21.67;;;;;;;;5062368;28;45228;-73
2023/06/18 13:18:17;;;;;;;;;19.33;19.33;;;;;;;;5060953;28;45858;-73
2023/06/18 13:20:44;;;;;;;;;17.33;17.33;;;;;;;;5060602;28;46998;-71
2023/06/18 13:23:09;;;;;;;;;26.33;24.00;;;;;;;;5062134;28;45288;-74
2023/06/18 13:25:34;;;;;;;;;21.67;21.67;;;;;;;;5060902;28;45216;-73
2023/06/18 13:28:00;;;;;;;;;20.33;20.33;;;;;;;;5060723;28;47050;-72
2023/06/18 13:30:25;;;;;;;;;23.67;23.67;;;;;;;;5061616;28;45594;-72
2023/06/18 13:32:51;;;;;;;;;20.67;20.67;;;;;;;;5060831;28;46041;-72
2023/06/18 13:35:17;;;;;;;;;20.67;20.67;;;;;;;;5062158;28;45220;-72
2023/06/18 13:37:43;;;;;;;;;19.33;18.67;;;;;;;;5061784;28;45336;-72
2023/06/18 13:40:08;;;;;;;;;21.00;20.67;;;;;;;;5062033;28;45394;-71
2023/06/18 13:42:34;;;;;;;;;17.33;17.33;;;;;;;;5061529;28;45303;-72
2023/06/18 13:44:59;;;;;;;;;18.67;18.67;;;;;;;;5060620;28;45427;-72
2023/06/18 13:47:24;;;;;;;;;14.67;14.67;;;;;;;;5060443;28;45932;-72
2023/06/18 13:49:52;;;;;;;;;17.67;17.67;;;;;;;;5060482;28;48308;-73
2023/06/18 13:52:17;;;;;;;;;18.67;18.33;;;;;;;;5061820;28;45279;-72
2023/06/18 13:54:43;;;;;;;;;16.67;16.67;;;;;;;;5060612;28;45229;-72
2023/06/18 13:57:08;;;;;;;;;17.00;17.00;;;;;;;;5060383;28;46130;-72
2023/06/18 13:59:33;;;;;;;;;17.67;17.67;;;;;;;;5060076;28;47844;-72
2023/06/18 14:01:59;;;;;;;;;15.33;15.33;;;;;;;;5060174;28;45248;-73
2023/06/18 14:04:24;;;;;;;;;14.67;13.33;;;;;;;;5060405;28;45330;-72
2023/06/18 14:06:50;;;;;;;;;18.00;17.00;;;;;;;;5060074;28;46701;-72
2023/06/18 14:09:16;;;;;;;;;17.67;17.67;;;;;;;;5060151;28;47009;-72
2023/06/18 14:11:41;;;;;;;;;16.00;16.00;;;;;;;;5061523;28;45223;-72